General Aviation Weather

Text Reports

Enter one or more of the following location identifiers separated by a space:

Zip Code, Four-Character ICAO or Three-Character IATA airport codes.

METAR - Aviation Routine Weather Report
KSXT - Sexton Summit, Oregon
Updated at 11:56 PM GMT on July 29, 2016 (4:56 PM PDT):
METAR KSXT 292356Z AUTO VRB06G16KT 10SM CLR 28/08 A3002 RMK AO2 SLP104 T02830078 10300 20222 56011
TAF - Terminal Area Forecast
KSXT - Sexton Summit, Oregon
Updated at 11:56 PM GMT on July 29, 2016 (4:56 PM PDT):
No TAF is currently available for this location.
Decoded:
No decoded TAF is available.
PIREP - Pilot Weather Report
KSXT - Sexton Summit, Oregon
Updated at 11:56 PM GMT on July 29, 2016 (4:56 PM PDT):
No PIREP is currently available for this location.
AIRMET - Airmens Meteorological Information
KSXT - Sexton Summit, Oregon
Updated at 11:56 PM GMT on July 29, 2016 (4:56 PM PDT):
No AIRMET is currently available for this location.
SIGMET - Significant Meteorological Information
KSXT - Sexton Summit, Oregon
Updated at 11:56 PM GMT on July 29, 2016 (4:56 PM PDT):
No SIGMET is currently available for this location.
NOTAM - Notice to Airmen
KSXT - Sexton Summit, Oregon
Updated at 11:56 PM GMT on July 29, 2016 (4:56 PM PDT):
No NOTAM is currently available for this location.
Forecast Area
KSXT - Sexton Summit, Oregon
Updated at 11:56 PM GMT on July 29, 2016 (4:56 PM PDT):
No NOTAM is currently available for this location.
Aviation Weather Maps